Time;durP1;ratioP1;P1;durP2;ratioP2;P2;SDS_P1;SDS_P2;PMS_P1;PMS_P2;Temp;Humidity;BMP_temperature;BMP_pressure;BME280_temperature;BME280_humidity;BME280_pressure;Samples;Min_cycle;Max_cycle;Signal;HPM_P1;HPM_P2
2023/09/27 00:00:22;;;;;;;;;;;;;;;;;;6314944;22;19899;-96
2023/09/27 00:02:49;;;;;;;;;;;;;;;;;;6317581;22;19902;-95
2023/09/27 00:05:16;;;;;;;;;;;;;;;;;;6305126;22;20002;-95
2023/09/27 00:07:43;;;;;;;;;;;;;;;;;;6348216;22;19937;-94
2023/09/27 00:10:12;;;;;;;;;;;;;;;;;;6350671;22;19960;-94
2023/09/27 00:12:38;;;;;;;;;;;;;;;;;;6346831;22;20306;-96
2023/09/27 00:15:07;;;;;;;;;;;;;;;;;;6331284;22;19946;-94
2023/09/27 00:17:33;;;;;;;;;;;;;;;;;;6336173;22;19918;-95
2023/09/27 00:20:15;;;;;;;;;;;;;;;;;;6335595;22;19906;-95
2023/09/27 00:22:42;;;;;;;;;;;;;;;;;;6332063;22;19903;-95
2023/09/27 00:25:09;;;;;;;;;;;;;;;;;;6309402;22;19907;-93
2023/09/27 00:27:38;;;;;;;;;;;;;;;;;;6313914;22;19887;-95
2023/09/27 00:30:04;;;;;;;;;;;;;;;;;;6325352;22;19950;-94
2023/09/27 00:32:30;;;;;;;;;;;;;;;;;;6326189;22;19914;-95
2023/09/27 00:34:58;;;;;;;;;;;;;;;;;;6317281;22;19903;-93
2023/09/27 00:37:24;;;;;;;;;;;;;;;;;;6315058;22;19903;-96
2023/09/27 00:39:50;;;;;;;;;;;;;;;;;;6311045;22;19977;-95
2023/09/27 00:42:16;;;;;;;;;;;;;;;;;;6310419;22;19907;-96
2023/09/27 00:44:43;;;;;;;;;;;;;;;;;;6308701;22;19903;-95
2023/09/27 00:47:18;;;;;;;;;;;;;;;;;;6309404;22;19914;-94
2023/09/27 00:49:44;;;;;;;;;;;;;;;;;;6310541;22;19903;-95
2023/09/27 00:52:11;;;;;;;;;;;;;;;;;;6308630;22;19969;-95
2023/09/27 00:54:37;;;;;;;;;;;;;;;;;;6310993;22;19941;-95
2023/09/27 00:57:03;;;;;;;;;;;;;;;;;;6311427;22;19907;-95
2023/09/27 00:59:28;;;;;;;;;;;;;;;;;;6308504;22;19949;-95
2023/09/27 01:01:54;;;;;;;;;;;;;;;;;;6311728;22;20029;-95
2023/09/27 01:04:32;;;;;;;;;;;;;;;;;;6300020;22;19926;-96
2023/09/27 01:06:58;;;;;;;;;;;;;;;;;;6310160;22;19953;-96
2023/09/27 01:09:24;;;;;;;;;;;;;;;;;;6314684;22;19907;-96
2023/09/27 01:11:50;;;;;;;;;;;;;;;;;;6318398;22;19890;-96
2023/09/27 01:14:16;;;;;;;;;;;;;;;;;;6321383;22;19946;-96
2023/09/27 01:16:42;;;;;;;;;;;;;;;;;;6311852;22;19907;-96
2023/09/27 01:19:10;;;;;;;;;;;;;;;;;;6310317;22;19910;-95
2023/09/27 01:21:36;;;;;;;;;;;;;;;;;;6310712;22;19902;-96
2023/09/27 01:24:14;;;;;;;;;;;;;;;;;;6311056;22;19907;-96
2023/09/27 01:26:43;;;;;;;;;;;;;;;;;;6309711;22;19988;-96
2023/09/27 01:29:09;;;;;;;;;;;;;;;;;;6311719;22;19985;-96
2023/09/27 01:31:35;;;;;;;;;;;;;;;;;;6311632;22;20202;-96
2023/09/27 01:34:01;;;;;;;;;;;;;;;;;;6311709;22;19917;-96
2023/09/27 01:36:30;;;;;;;;;;;;;;;;;;6312538;22;19910;-95
2023/09/27 01:38:56;;;;;;;;;;;;;;;;;;6314906;22;19907;-96
2023/09/27 01:41:22;;;;;;;;;;;;;;;;;;6313832;22;19948;-96
2023/09/27 01:43:48;;;;;;;;;;;;;;;;;;6311320;22;19957;-96
2023/09/27 01:46:22;;;;;;;;;;;;;;;;;;6313329;22;19906;-95
2023/09/27 01:48:48;;;;;;;;;;;;;;;;;;6313548;22;19903;-96
2023/09/27 01:51:14;;;;;;;;;;;;;;;;;;6312626;22;19906;-96
2023/09/27 01:53:41;;;;;;;;;;;;;;;;;;6312666;22;19935;-95
2023/09/27 01:56:07;;;;;;;;;;;;;;;;;;6311788;22;19902;-96
2023/09/27 01:58:33;;;;;;;;;;;;;;;;;;6308558;22;19946;-96
2023/09/27 02:00:59;;;;;;;;;;;;;;;;;;6315443;22;19910;-95
2023/09/27 02:03:25;;;;;;;;;;;;;;;;;;6315199;22;19903;-95
2023/09/27 02:05:52;;;;;;;;;;;;;;;;;;6315601;22;19938;-95
2023/09/27 02:08:18;;;;;;;;;;;;;;;;;;6316225;22;19910;-96
2023/09/27 02:10:53;;;;;;;;;;;;;;;;;;6315828;22;19903;-96
2023/09/27 02:13:18;;;;;;;;;;;;;;;;;;6315244;22;20342;-96
2023/09/27 02:15:50;;;;;;;;;;;;;;;;;;6316878;22;19926;-96
2023/09/27 02:18:16;;;;;;;;;;;;;;;;;;6318237;22;19903;-96
2023/09/27 02:20:43;;;;;;;;;;;;;;;;;;6296693;22;19919;-96
2023/09/27 02:23:12;;;;;;;;;;;;;;;;;;6277715;22;19946;-96
2023/09/27 02:25:39;;;;;;;;;;;;;;;;;;6284555;22;19949;-96
2023/09/27 02:28:06;;;;;;;;;;;;;;;;;;6286383;22;19903;-95
2023/09/27 02:33:11;;;;;;;;;;;;;;;;;;6308452;22;19923;-94
2023/09/27 02:35:37;;;;;;;;;;;;;;;;;;6310078;22;19965;-96
2023/09/27 02:38:03;;;;;;;;;;;;;;;;;;6309684;22;20320;-95
2023/09/27 02:40:45;;;;;;;;;;;;;;;;;;;;;
2023/09/27 02:43:21;;;;;;;;;;;;;;;;;;6334939;22;19941;-96
2023/09/27 02:48:49;;;;;;;;;;;;;;;;;;6278492;22;19941;-96
2023/09/27 02:51:17;;;;;;;;;;;;;;;;;;6279648;22;19907;-96
2023/09/27 02:53:50;;;;;;;;;;;;;;;;;;6279139;22;20336;-95
2023/09/27 02:56:18;;;;;;;;;;;;;;;;;;6278405;22;20332;-95
2023/09/27 02:58:57;;;;;;;;;;;;;;;;;;;;;
2023/09/27 03:01:33;;;;;;;;;;;;;;;;;;6282141;22;19991;-94
2023/09/27 03:03:59;;;;;;;;;;;;;;;;;;6287775;22;19907;-95
2023/09/27 03:06:32;;;;;;;;;;;;;;;;;;6297529;22;19919;-96
2023/09/27 03:08:58;;;;;;;;;;;;;;;;;;6284364;22;19914;-96
2023/09/27 03:11:27;;;;;;;;;;;;;;;;;;6282963;22;19907;-94
2023/09/27 03:13:56;;;;;;;;;;;;;;;;;;6314611;22;19989;-96
2023/09/27 03:16:25;;;;;;;;;;;;;;;;;;6318950;22;19930;-96
2023/09/27 03:19:09;;;;;;;;;;;;;;;;;;6331502;22;19915;-96
2023/09/27 03:21:35;;;;;;;;;;;;;;;;;;6307544;22;19925;-94
2023/09/27 03:24:01;;;;;;;;;;;;;;;;;;6335649;22;19907;-95
2023/09/27 03:26:27;;;;;;;;;;;;;;;;;;6332579;22;19910;-94
2023/09/27 03:28:54;;;;;;;;;;;;;;;;;;6312343;22;19899;-94
2023/09/27 03:31:20;;;;;;;;;;;;;;;;;;6310779;22;20308;-94
2023/09/27 03:33:46;;;;;;;;;;;;;;;;;;6309381;22;19934;-94
2023/09/27 03:36:15;;;;;;;;;;;;;;;;;;6309147;22;20332;-96
2023/09/27 03:41:31;;;;;;;;;;;;;;;;;;6299056;22;19910;-95
2023/09/27 03:43:57;;;;;;;;;;;;;;;;;;6309240;22;19955;-93
2023/09/27 03:46:23;;;;;;;;;;;;;;;;;;6311035;22;19926;-95
2023/09/27 03:48:49;;;;;;;;;;;;;;;;;;6311200;22;20285;-95
2023/09/27 03:53:40;;;;;;;;;;;;;;;;;;6319852;22;20328;-96
2023/09/27 03:56:06;;;;;;;;;;;;;;;;;;6318994;22;19902;-96
2023/09/27 03:58:32;;;;;;;;;;;;;;;;;;6322322;22;19930;-96
2023/09/27 04:00:58;;;;;;;;;;;;;;;;;;6309152;22;19903;-96
2023/09/27 04:03:27;;;;;;;;;;;;;;;;;;6310112;22;19907;-95
2023/09/27 04:05:53;;;;;;;;;;;;;;;;;;6309570;22;19911;-96
2023/09/27 04:08:20;;;;;;;;;;;;;;;;;;6310068;22;19903;-95
2023/09/27 04:10:48;;;;;;;;;;;;;;;;;;6309823;22;20009;-96
2023/09/27 04:13:14;;;;;;;;;;;;;;;;;;6324454;22;19914;-96
2023/09/27 04:15:40;;;;;;;;;;;;;;;;;;6318169;22;19909;-96
2023/09/27 04:18:06;;;;;;;;;;;;;;;;;;6311756;22;19906;-96
2023/09/27 04:20:32;;;;;;;;;;;;;;;;;;6311416;22;19931;-96
2023/09/27 04:22:58;;;;;;;;;;;;;;;;;;6308344;22;19969;-96
2023/09/27 04:25:34;;;;;;;;;;;;;;;;;;6309281;22;19899;-95
2023/09/27 04:28:00;;;;;;;;;;;;;;;;;;6308724;22;19981;-96
2023/09/27 04:30:29;;;;;;;;;;;;;;;;;;6308503;22;19905;-94
2023/09/27 04:32:58;;;;;;;;;;;;;;;;;;6308600;22;19948;-95
2023/09/27 04:35:24;;;;;;;;;;;;;;;;;;6308871;22;20336;-95
2023/09/27 04:37:53;;;;;;;;;;;;;;;;;;6309253;22;19903;-95
2023/09/27 04:40:19;;;;;;;;;;;;;;;;;;6310905;22;20373;-94
2023/09/27 04:43:45;;;;;;;;;;;;;;;;;;6308887;22;19906;-96
2023/09/27 04:48:12;;;;;;;;;;;;;;;;;;6311024;22;19953;-95
2023/09/27 04:50:44;;;;;;;;;;;;;;;;;;6307430;22;20287;-95
2023/09/27 04:55:52;;;;;;;;;;;;;;;;;;6278706;22;19919;-94
2023/09/27 04:58:27;;;;;;;;;;;;;;;;;;6299084;22;21347;-94
2023/09/27 05:00:53;;;;;;;;;;;;;;;;;;6304541;22;19919;-95
2023/09/27 05:03:22;;;;;;;;;;;;;;;;;;6312027;22;19887;-95
2023/09/27 05:06:06;;;;;;;;;;;;;;;;;;6311334;22;19915;-94
2023/09/27 05:08:39;;;;;;;;;;;;;;;;;;6315366;22;20397;-96
2023/09/27 05:11:04;;;;;;;;;;;;;;;;;;6304589;22;19968;-95
2023/09/27 05:16:23;;;;;;;;;;;;;;;;;;6236743;22;20234;-95
2023/09/27 05:18:55;;;;;;;;;;;;;;;;;;6322559;22;19909;-96
2023/09/27 05:23:57;;;;;;;;;;;;;;;;;;6283979;22;19923;-96
2023/09/27 05:26:26;;;;;;;;;;;;;;;;;;6256381;22;20139;-96
2023/09/27 05:28:52;;;;;;;;;;;;;;;;;;6286450;22;20340;-96
2023/09/27 05:31:18;;;;;;;;;;;;;;;;;;6293338;22;19982;-96
2023/09/27 05:33:46;;;;;;;;;;;;;;;;;;6290004;22;19926;-94
2023/09/27 05:36:30;;;;;;;;;;;;;;;;;;6290203;22;19919;-94
2023/09/27 05:39:09;;;;;;;;;;;;;;;;;;6269526;22;19926;-95
2023/09/27 05:41:35;;;;;;;;;;;;;;;;;;6295354;22;19993;-95
2023/09/27 05:44:01;;;;;;;;;;;;;;;;;;6279020;22;19924;-96
2023/09/27 05:46:28;;;;;;;;;;;;;;;;;;6248002;22;19934;-95
2023/09/27 05:48:54;;;;;;;;;;;;;;;;;;6268100;22;19914;-96
2023/09/27 05:54:11;;;;;;;;;;;;;;;;;;6265107;22;20581;-96
2023/09/27 06:04:21;;;;;;;;;;;;;;;;;;6327670;22;19914;-96
2023/09/27 06:06:55;;;;;;;;;;;;;;;;;;6247271;22;19923;-95
2023/09/27 06:09:21;;;;;;;;;;;;;;;;;;6250384;22;19910;-95
2023/09/27 06:11:47;;;;;;;;;;;;;;;;;;6258789;22;20207;-94
2023/09/27 06:14:13;;;;;;;;;;;;;;;;;;6268779;22;19990;-95
2023/09/27 06:16:45;;;;;;;;;;;;;;;;;;6266580;22;19923;-94
2023/09/27 06:19:11;;;;;;;;;;;;;;;;;;6261773;22;19970;-95
2023/09/27 06:24:28;;;;;;;;;;;;;;;;;;6286178;22;19991;-95
2023/09/27 06:26:54;;;;;;;;;;;;;;;;;;6288969;22;19919;-93
2023/09/27 06:29:23;;;;;;;;;;;;;;;;;;6300504;22;19908;-95
2023/09/27 06:31:49;;;;;;;;;;;;;;;;;;6293709;22;19903;-95
2023/09/27 06:34:18;;;;;;;;;;;;;;;;;;6294606;22;19915;-95
2023/09/27 06:36:48;;;;;;;;;;;;;;;;;;6282403;22;19986;-96
2023/09/27 06:42:00;;;;;;;;;;;;;;;;;;6236012;22;19994;-96
2023/09/27 06:44:26;;;;;;;;;;;;;;;;;;6281784;22;19903;-95
2023/09/27 06:46:52;;;;;;;;;;;;;;;;;;6282074;22;19903;-95
2023/09/27 06:49:18;;;;;;;;;;;;;;;;;;6287290;22;20275;-96
2023/09/27 06:51:47;;;;;;;;;;;;;;;;;;6281246;22;19919;-96
2023/09/27 06:54:13;;;;;;;;;;;;;;;;;;6246025;22;20168;-95
2023/09/27 06:56:51;;;;;;;;;;;;;;;;;;6281950;22;19919;-96
2023/09/27 06:59:17;;;;;;;;;;;;;;;;;;6289460;22;20328;-95
2023/09/27 07:01:43;;;;;;;;;;;;;;;;;;6287732;22;19910;-95
2023/09/27 07:04:16;;;;;;;;;;;;;;;;;;6290768;22;20339;-94
2023/09/27 07:06:42;;;;;;;;;;;;;;;;;;6287218;22;20308;-94
2023/09/27 07:09:13;;;;;;;;;;;;;;;;;;6291134;22;19919;-94
2023/09/27 07:11:42;;;;;;;;;;;;;;;;;;6305432;22;19935;-91
2023/09/27 07:14:12;;;;;;;;;;;;;;;;;;6285725;22;19987;-90
2023/09/27 07:16:38;;;;;;;;;;;;;;;;;;6287650;22;19915;-91
2023/09/27 07:19:05;;;;;;;;;;;;;;;;;;6290019;22;19903;-92
2023/09/27 07:21:31;;;;;;;;;;;;;;;;;;6280185;22;19919;-91
2023/09/27 07:26:46;;;;;;;;;;;;;;;;;;6352604;22;19919;-90
2023/09/27 07:29:12;;;;;;;;;;;;;;;;;;6323396;22;20336;-92
2023/09/27 07:31:38;;;;;;;;;;;;;;;;;;6280915;22;19903;-92
2023/09/27 07:34:05;;;;;;;;;;;;;;;;;;6280385;22;20344;-90
2023/09/27 07:39:11;;;;;;;;;;;;;;;;;;6300402;22;21001;-91
2023/09/27 07:41:37;;;;;;;;;;;;;;;;;;6323495;22;19903;-91
2023/09/27 07:44:17;;;;;;;;;;;;;;;;;;6316734;22;19938;-91
2023/09/27 07:47:02;;;;;;;;;;;;;;;;;;6349154;22;19902;-91
2023/09/27 07:49:28;;;;;;;;;;;;;;;;;;6303173;22;19903;-92
2023/09/27 07:52:00;;;;;;;;;;;;;;;;;;6280075;22;19983;-91
2023/09/27 07:54:26;;;;;;;;;;;;;;;;;;6283072;22;19911;-91
2023/09/27 07:56:59;;;;;;;;;;;;;;;;;;6283662;22;20326;-91
2023/09/27 07:59:28;;;;;;;;;;;;;;;;;;6285301;22;19887;-91
2023/09/27 08:04:42;;;;;;;;;;;;;;;;;;6284553;22;19918;-91
2023/09/27 08:07:08;;;;;;;;;;;;;;;;;;6281307;22;19931;-96
2023/09/27 08:09:38;;;;;;;;;;;;;;;;;;6278884;22;20263;-91
2023/09/27 08:12:04;;;;;;;;;;;;;;;;;;6280705;22;19982;-92
2023/09/27 08:14:36;;;;;;;;;;;;;;;;;;6282272;22;19903;-92
2023/09/27 08:17:02;;;;;;;;;;;;;;;;;;6285503;22;19904;-93
2023/09/27 08:19:28;;;;;;;;;;;;;;;;;;6288370;22;19911;-90
2023/09/27 08:21:56;;;;;;;;;;;;;;;;;;6288834;22;20713;-93
2023/09/27 08:24:24;;;;;;;;;;;;;;;;;;6283700;22;19914;-91
2023/09/27 08:26:50;;;;;;;;;;;;;;;;;;6285359;22;19931;-93
2023/09/27 08:29:28;;;;;;;;;;;;;;;;;;6288031;22;19899;-91
2023/09/27 08:32:00;;;;;;;;;;;;;;;;;;6279198;22;19943;-92
2023/09/27 08:34:35;;;;;;;;;;;;;;;;;;6279259;22;19911;-91
2023/09/27 08:39:33;;;;;;;;;;;;;;;;;;6320937;22;19915;-92
2023/09/27 08:44:46;;;;;;;;;;;;;;;;;;6262334;22;20275;-91
2023/09/27 08:47:12;;;;;;;;;;;;;;;;;;6285987;22;19943;-91
2023/09/27 08:49:38;;;;;;;;;;;;;;;;;;6291812;22;19919;-92
2023/09/27 08:54:43;;;;;;;;;;;;;;;;;;6266803;22;19923;-95
2023/09/27 08:57:09;;;;;;;;;;;;;;;;;;6285113;22;19914;-94
2023/09/27 08:59:35;;;;;;;;;;;;;;;;;;6283497;22;19907;-94
2023/09/27 09:02:16;;;;;;;;;;;;;;;;;;6282107;22;19900;-94
2023/09/27 09:04:45;;;;;;;;;;;;;;;;;;6287196;22;19908;-96
2023/09/27 09:15:21;;;;;;;;;;;;;;;;;;6280409;22;20266;-94
2023/09/27 09:17:52;;;;;;;;;;;;;;;;;;6278969;22;19935;-93
2023/09/27 09:22:45;;;;;;;;;;;;;;;;;;6281378;22;19910;-95
2023/09/27 09:25:14;;;;;;;;;;;;;;;;;;6299048;22;19894;-93
2023/09/27 09:27:40;;;;;;;;;;;;;;;;;;6294924;22;19919;-94
2023/09/27 09:30:15;;;;;;;;;;;;;;;;;;6293886;22;19903;-93
2023/09/27 09:32:44;;;;;;;;;;;;;;;;;;6283225;22;19907;-96
2023/09/27 09:51:24;;;;;;;;;;;;;;;;;;6310890;22;20325;-96
2023/09/27 09:54:05;;;;;;;;;;;;;;;;;;6279823;22;19916;-92
2023/09/27 09:56:47;;;;;;;;;;;;;;;;;;6258869;22;19909;-96
2023/09/27 10:01:57;;;;;;;;;;;;;;;;;;6300457;22;20009;-95
2023/09/27 10:12:37;;;;;;;;;;;;;;;;;;6311511;22;19918;-95
2023/09/27 10:15:03;;;;;;;;;;;;;;;;;;6284290;22;19903;-96
2023/09/27 10:17:36;;;;;;;;;;;;;;;;;;6284349;22;19957;-96
2023/09/27 10:20:02;;;;;;;;;;;;;;;;;;6287196;22;19902;-94
2023/09/27 10:25:15;;;;;;;;;;;;;;;;;;6314656;22;19910;-96
2023/09/27 10:27:44;;;;;;;;;;;;;;;;;;6288101;22;19903;-93
2023/09/27 10:30:13;;;;;;;;;;;;;;;;;;6284941;22;19911;-95
2023/09/27 10:32:45;;;;;;;;;;;;;;;;;;6286208;22;19911;-96
2023/09/27 10:35:15;;;;;;;;;;;;;;;;;;6286967;22;19930;-96
2023/09/27 10:37:41;;;;;;;;;;;;;;;;;;6286973;22;19991;-94
2023/09/27 10:40:12;;;;;;;;;;;;;;;;;;6286968;22;20335;-96
2023/09/27 10:42:47;;;;;;;;;;;;;;;;;;6249744;23;19931;-95
2023/09/27 10:45:13;;;;;;;;;;;;;;;;;;6266310;23;19904;-96
2023/09/27 10:47:42;;;;;;;;;;;;;;;;;;6275960;22;19931;-96
2023/09/27 10:50:21;;;;;;;;;;;;;;;;;;;;;
2023/09/27 10:52:55;;;;;;;;;;;;;;;;;;6315037;22;19990;-94
2023/09/27 10:55:24;;;;;;;;;;;;;;;;;;6289421;22;19930;-94
2023/09/27 10:57:50;;;;;;;;;;;;;;;;;;6291601;22;19899;-95
2023/09/27 11:00:18;;;;;;;;;;;;;;;;;;6290254;22;19914;-95
2023/09/27 11:02:44;;;;;;;;;;;;;;;;;;6285969;22;19907;-95
2023/09/27 11:05:13;;;;;;;;;;;;;;;;;;6282242;22;19947;-94
2023/09/27 11:07:48;;;;;;;;;;;;;;;;;;6284724;22;20295;-95
2023/09/27 11:10:15;;;;;;;;;;;;;;;;;;6287973;22;19903;-94
2023/09/27 11:12:41;;;;;;;;;;;;;;;;;;6319438;22;19934;-96
2023/09/27 11:15:07;;;;;;;;;;;;;;;;;;6320799;22;19903;-95
2023/09/27 11:20:20;;;;;;;;;;;;;;;;;;6355164;22;20365;-96
2023/09/27 11:28:24;;;;;;;;;;;;;;;;;;6362019;22;19909;-95
2023/09/27 11:31:05;;;;;;;;;;;;;;;;;;6312106;22;19907;-95
2023/09/27 11:33:34;;;;;;;;;;;;;;;;;;6288833;22;19902;-95
2023/09/27 11:36:03;;;;;;;;;;;;;;;;;;6287577;22;19903;-95
2023/09/27 11:38:33;;;;;;;;;;;;;;;;;;6267337;22;19923;-96
2023/09/27 11:41:01;;;;;;;;;;;;;;;;;;6280353;22;19919;-94
2023/09/27 11:43:37;;;;;;;;;;;;;;;;;;6279337;22;20367;-96
2023/09/27 11:48:51;;;;;;;;;;;;;;;;;;6297863;22;19926;-94
2023/09/27 11:57:03;;;;;;;;;;;;;;;;;;6303296;22;19957;-95
2023/09/27 12:02:21;;;;;;;;;;;;;;;;;;6298218;22;19951;-96
2023/09/27 12:04:47;;;;;;;;;;;;;;;;;;6284377;22;19906;-94
2023/09/27 12:07:16;;;;;;;;;;;;;;;;;;6259550;22;19911;-95
2023/09/27 12:09:51;;;;;;;;;;;;;;;;;;6295729;22;19910;-96
2023/09/27 12:12:24;;;;;;;;;;;;;;;;;;6323824;22;19903;-96
2023/09/27 12:14:57;;;;;;;;;;;;;;;;;;6323121;22;19907;-95
2023/09/27 12:28:17;;;;;;;;;;;;;;;;;;6320698;22;19941;-96
2023/09/27 12:30:46;;;;;;;;;;;;;;;;;;6286487;22;19988;-94
2023/09/27 12:33:15;;;;;;;;;;;;;;;;;;6286658;22;19911;-94
2023/09/27 12:35:44;;;;;;;;;;;;;;;;;;6284023;22;19902;-93
2023/09/27 12:40:55;;;;;;;;;;;;;;;;;;6322221;22;20431;-93
2023/09/27 12:43:27;;;;;;;;;;;;;;;;;;6292731;22;19910;-94
2023/09/27 12:45:56;;;;;;;;;;;;;;;;;;6290779;22;19937;-92
2023/09/27 12:48:28;;;;;;;;;;;;;;;;;;6292127;22;19903;-95
2023/09/27 12:51:07;;;;;;;;;;;;;;;;;;6284360;22;20233;-94
2023/09/27 12:59:26;;;;;;;;;;;;;;;;;;6185151;23;20358;-93
2023/09/27 13:24:01;;;;;;;;;;;;;;;;;;6126466;23;19907;-93
2023/09/27 13:26:37;;;;;;;;;;;;;;;;;;;;;
2023/09/27 13:29:03;;;;;;;;;;;;;;;;;;6161789;23;19999;-94
2023/09/27 13:31:39;;;;;;;;;;;;;;;;;;;;;
2023/09/27 13:34:22;;;;;;;;;;;;;;;;;;;;;
2023/09/27 13:36:54;;;;;;;;;;;;;;;;;;6309526;22;19965;-96
2023/09/27 13:56:17;;;;;;;;;;;;;;;;;;6216690;23;19911;-96
2023/09/27 13:58:46;;;;;;;;;;;;;;;;;;6218002;23;19899;-96
2023/09/27 14:01:24;;;;;;;;;;;;;;;;;;6215873;23;19904;-95
2023/09/27 14:09:25;;;;;;;;;;;;;;;;;;6238455;22;19915;-96
2023/09/27 14:11:51;;;;;;;;;;;;;;;;;;6280258;22;19919;-94
2023/09/27 14:25:27;;;;;;;;;;;;;;;;;;;;;
2023/09/27 14:28:08;;;;;;;;;;;;;;;;;;6312006;22;19989;-96
2023/09/27 14:30:50;;;;;;;;;;;;;;;;;;6288414;22;19899;-96
2023/09/27 14:39:01;;;;;;;;;;;;;;;;;;6321085;22;19928;-96
2023/09/27 14:58:21;;;;;;;;;;;;;;;;;;6132814;23;19915;-94
2023/09/27 15:00:50;;;;;;;;;;;;;;;;;;6132059;23;19929;-96
2023/09/27 15:06:10;;;;;;;;;;;;;;;;;;6130685;23;19951;-96
2023/09/27 15:08:39;;;;;;;;;;;;;;;;;;6132169;23;19936;-95
2023/09/27 15:13:46;;;;;;;;;;;;;;;;;;6320860;22;19945;-96
2023/09/27 15:16:12;;;;;;;;;;;;;;;;;;6293253;22;19903;-92
2023/09/27 15:18:50;;;;;;;;;;;;;;;;;;6293555;22;20376;-96
2023/09/27 15:21:19;;;;;;;;;;;;;;;;;;6322878;22;19898;-96
2023/09/27 15:26:32;;;;;;;;;;;;;;;;;;6261773;22;19919;-94
2023/09/27 15:29:07;;;;;;;;;;;;;;;;;;6304915;22;19904;-95
2023/09/27 15:37:03;;;;;;;;;;;;;;;;;;6320872;22;19949;-92
2023/09/27 15:39:47;;;;;;;;;;;;;;;;;;6301550;22;19907;-96
2023/09/27 15:42:14;;;;;;;;;;;;;;;;;;6290224;22;20225;-92
2023/09/27 15:44:43;;;;;;;;;;;;;;;;;;6284150;22;19918;-95
2023/09/27 15:47:09;;;;;;;;;;;;;;;;;;6284639;22;19910;-93
2023/09/27 15:49:38;;;;;;;;;;;;;;;;;;6285006;22;19903;-92
2023/09/27 15:52:08;;;;;;;;;;;;;;;;;;6289961;22;19903;-95
2023/09/27 15:54:45;;;;;;;;;;;;;;;;;;6266568;22;19919;-96
2023/09/27 15:57:11;;;;;;;;;;;;;;;;;;6297198;22;19987;-93
2023/09/27 15:59:40;;;;;;;;;;;;;;;;;;6277614;22;20312;-93
2023/09/27 16:05:03;;;;;;;;;;;;;;;;;;6309821;22;19930;-91
2023/09/27 16:07:45;;;;;;;;;;;;;;;;;;6245055;23;19903;-93
2023/09/27 16:10:25;;;;;;;;;;;;;;;;;;6245880;23;19907;-94
2023/09/27 16:15:36;;;;;;;;;;;;;;;;;;6245891;23;19957;-94
2023/09/27 16:18:05;;;;;;;;;;;;;;;;;;6245610;23;20272;-92
2023/09/27 16:20:30;;;;;;;;;;;;;;;;;;6245874;23;19903;-93
2023/09/27 16:22:59;;;;;;;;;;;;;;;;;;6247698;23;19932;-94
2023/09/27 16:25:34;;;;;;;;;;;;;;;;;;6246967;23;19931;-94
2023/09/27 16:28:03;;;;;;;;;;;;;;;;;;6245513;23;19908;-95
2023/09/27 16:30:37;;;;;;;;;;;;;;;;;;6246172;23;19927;-96
2023/09/27 16:33:09;;;;;;;;;;;;;;;;;;6260303;23;19990;-95
2023/09/27 16:35:50;;;;;;;;;;;;;;;;;;6249904;23;19994;-96
2023/09/27 16:38:16;;;;;;;;;;;;;;;;;;6264198;22;19903;-94
2023/09/27 16:40:46;;;;;;;;;;;;;;;;;;6309535;22;19910;-94
2023/09/27 16:43:14;;;;;;;;;;;;;;;;;;6283414;22;19903;-96
2023/09/27 16:48:33;;;;;;;;;;;;;;;;;;6316799;22;19914;-96
2023/09/27 16:51:08;;;;;;;;;;;;;;;;;;6284980;22;19907;-96
2023/09/27 16:53:41;;;;;;;;;;;;;;;;;;6290035;22;19922;-95
2023/09/27 16:56:07;;;;;;;;;;;;;;;;;;6289164;22;19937;-94
2023/09/27 16:58:33;;;;;;;;;;;;;;;;;;6282510;22;19915;-92
2023/09/27 17:01:02;;;;;;;;;;;;;;;;;;6282547;22;19903;-95
2023/09/27 17:03:28;;;;;;;;;;;;;;;;;;6285600;22;19903;-94
2023/09/27 17:05:59;;;;;;;;;;;;;;;;;;6283238;22;19914;-95
2023/09/27 17:29:23;;;;;;;;;;;;;;;;;;6258384;22;19925;-95
2023/09/27 17:31:52;;;;;;;;;;;;;;;;;;6315499;22;19899;-95
2023/09/27 17:34:19;;;;;;;;;;;;;;;;;;6318666;22;19910;-95
2023/09/27 17:36:48;;;;;;;;;;;;;;;;;;6315501;22;19902;-95
2023/09/27 17:39:14;;;;;;;;;;;;;;;;;;6314439;22;19902;-94
2023/09/27 17:41:40;;;;;;;;;;;;;;;;;;6316579;22;19903;-95
2023/09/27 17:44:09;;;;;;;;;;;;;;;;;;6318793;22;19926;-96
2023/09/27 17:46:35;;;;;;;;;;;;;;;;;;6323422;22;19918;-95
2023/09/27 17:49:04;;;;;;;;;;;;;;;;;;6319601;22;19902;-95
2023/09/27 17:54:15;;;;;;;;;;;;;;;;;;6347866;22;20346;-94
2023/09/27 17:56:41;;;;;;;;;;;;;;;;;;6316031;22;19982;-93
2023/09/27 18:02:04;;;;;;;;;;;;;;;;;;6224647;23;19924;-94
2023/09/27 18:04:30;;;;;;;;;;;;;;;;;;6193445;23;19957;-96
2023/09/27 18:17:53;;;;;;;;;;;;;;;;;;6227130;23;19911;-96
2023/09/27 18:20:38;;;;;;;;;;;;;;;;;;6203801;23;19951;-96
2023/09/27 18:23:11;;;;;;;;;;;;;;;;;;6207880;22;19908;-95
2023/09/27 18:25:40;;;;;;;;;;;;;;;;;;6265665;22;19934;-93
2023/09/27 18:28:06;;;;;;;;;;;;;;;;;;6297460;22;19904;-93
2023/09/27 18:30:32;;;;;;;;;;;;;;;;;;6296324;22;20343;-93
2023/09/27 18:33:07;;;;;;;;;;;;;;;;;;6289010;22;19968;-96
2023/09/27 18:35:34;;;;;;;;;;;;;;;;;;6284696;22;19907;-95
2023/09/27 18:38:00;;;;;;;;;;;;;;;;;;6276951;22;19910;-96
2023/09/27 18:40:27;;;;;;;;;;;;;;;;;;6280512;22;19977;-95
2023/09/27 18:42:53;;;;;;;;;;;;;;;;;;6291127;22;19982;-94
2023/09/27 18:45:18;;;;;;;;;;;;;;;;;;6287032;22;19903;-96
2023/09/27 18:47:53;;;;;;;;;;;;;;;;;;6287782;22;19903;-96
2023/09/27 18:50:19;;;;;;;;;;;;;;;;;;6286930;22;19979;-95
2023/09/27 18:52:46;;;;;;;;;;;;;;;;;;6284096;22;19907;-96
2023/09/27 18:55:15;;;;;;;;;;;;;;;;;;6284766;22;19943;-95
2023/09/27 18:57:47;;;;;;;;;;;;;;;;;;6284536;22;19903;-95
2023/09/27 19:00:13;;;;;;;;;;;;;;;;;;6291365;22;19913;-95
2023/09/27 19:03:01;;;;;;;;;;;;;;;;;;6326691;22;19887;-96
2023/09/27 19:13:52;;;;;;;;;;;;;;;;;;6357966;22;19970;-96
2023/09/27 19:18:46;;;;;;;;;;;;;;;;;;6302675;22;19923;-95
2023/09/27 19:21:31;;;;;;;;;;;;;;;;;;6294695;22;19899;-96
2023/09/27 19:23:57;;;;;;;;;;;;;;;;;;6278568;22;19923;-96
2023/09/27 19:26:33;;;;;;;;;;;;;;;;;;6289211;22;19937;-96
2023/09/27 19:29:09;;;;;;;;;;;;;;;;;;6297177;22;19914;-96
2023/09/27 19:31:39;;;;;;;;;;;;;;;;;;6303790;22;19906;-95
2023/09/27 19:34:05;;;;;;;;;;;;;;;;;;6290964;22;19911;-96
2023/09/27 19:36:44;;;;;;;;;;;;;;;;;;6290172;22;19949;-96
2023/09/27 19:39:11;;;;;;;;;;;;;;;;;;6292273;22;19903;-96
2023/09/27 19:41:46;;;;;;;;;;;;;;;;;;6292874;22;20373;-95
2023/09/27 19:44:16;;;;;;;;;;;;;;;;;;6318287;22;19907;-96
2023/09/27 19:46:50;;;;;;;;;;;;;;;;;;6316459;22;19925;-96
2023/09/27 19:49:17;;;;;;;;;;;;;;;;;;6315986;22;19974;-96
2023/09/27 19:51:55;;;;;;;;;;;;;;;;;;6318263;22;19910;-96
2023/09/27 19:54:21;;;;;;;;;;;;;;;;;;6322681;22;19915;-96
2023/09/27 19:56:47;;;;;;;;;;;;;;;;;;6316906;22;19990;-96
2023/09/27 19:59:15;;;;;;;;;;;;;;;;;;6322208;22;19909;-95
2023/09/27 20:01:44;;;;;;;;;;;;;;;;;;6322471;22;19906;-96
2023/09/27 20:04:10;;;;;;;;;;;;;;;;;;6314000;22;19902;-96
2023/09/27 20:09:30;;;;;;;;;;;;;;;;;;6342195;22;19918;-96
2023/09/27 20:11:56;;;;;;;;;;;;;;;;;;6314204;22;19926;-96
2023/09/27 20:14:22;;;;;;;;;;;;;;;;;;6313883;22;19911;-96
2023/09/27 20:16:48;;;;;;;;;;;;;;;;;;6297551;22;19903;-96
2023/09/27 20:19:14;;;;;;;;;;;;;;;;;;6314367;22;19903;-96
2023/09/27 20:21:40;;;;;;;;;;;;;;;;;;6314796;22;19910;-96
2023/09/27 20:24:06;;;;;;;;;;;;;;;;;;6314480;22;19909;-96
2023/09/27 20:26:33;;;;;;;;;;;;;;;;;;6314894;22;19931;-96
2023/09/27 20:28:59;;;;;;;;;;;;;;;;;;6316789;22;20274;-96
2023/09/27 20:31:34;;;;;;;;;;;;;;;;;;6315701;22;19948;-96
2023/09/27 20:34:04;;;;;;;;;;;;;;;;;;6315358;22;20726;-96
2023/09/27 20:36:30;;;;;;;;;;;;;;;;;;6311226;22;19934;-96
2023/09/27 20:38:56;;;;;;;;;;;;;;;;;;6310322;22;19929;-96
2023/09/27 20:41:22;;;;;;;;;;;;;;;;;;6309898;22;19903;-96
2023/09/27 20:43:48;;;;;;;;;;;;;;;;;;6309686;22;20264;-96
2023/09/27 20:46:17;;;;;;;;;;;;;;;;;;6310804;22;19910;-96
2023/09/27 20:48:46;;;;;;;;;;;;;;;;;;6310052;22;19993;-96
2023/09/27 20:51:13;;;;;;;;;;;;;;;;;;6311533;22;20386;-96
2023/09/27 20:53:39;;;;;;;;;;;;;;;;;;6309386;22;20364;-96
2023/09/27 20:56:05;;;;;;;;;;;;;;;;;;6310006;22;19903;-96
2023/09/27 20:58:32;;;;;;;;;;;;;;;;;;6308690;22;20373;-96
2023/09/27 21:01:00;;;;;;;;;;;;;;;;;;6308696;22;19903;-96
2023/09/27 21:03:26;;;;;;;;;;;;;;;;;;6308397;22;19903;-95
2023/09/27 21:05:52;;;;;;;;;;;;;;;;;;6308614;22;19929;-96
2023/09/27 21:08:21;;;;;;;;;;;;;;;;;;6308671;22;20266;-96
2023/09/27 21:10:47;;;;;;;;;;;;;;;;;;6309447;22;19906;-96
2023/09/27 21:13:13;;;;;;;;;;;;;;;;;;6310873;22;20221;-96
2023/09/27 21:15:39;;;;;;;;;;;;;;;;;;6309675;22;19903;-95
2023/09/27 21:18:05;;;;;;;;;;;;;;;;;;6310180;22;20370;-96
2023/09/27 21:20:31;;;;;;;;;;;;;;;;;;6310552;22;19907;-96
2023/09/27 21:22:57;;;;;;;;;;;;;;;;;;6312767;22;19903;-95
2023/09/27 21:25:23;;;;;;;;;;;;;;;;;;6336062;22;19939;-96
2023/09/27 21:27:49;;;;;;;;;;;;;;;;;;6333738;22;19929;-96
2023/09/27 21:30:15;;;;;;;;;;;;;;;;;;6331267;22;19903;-96
2023/09/27 21:32:41;;;;;;;;;;;;;;;;;;6310921;22;19907;-96
2023/09/27 21:35:07;;;;;;;;;;;;;;;;;;6309395;22;19952;-96
2023/09/27 21:37:33;;;;;;;;;;;;;;;;;;6309264;22;20355;-96
2023/09/27 21:40:07;;;;;;;;;;;;;;;;;;6308404;22;19903;-96
2023/09/27 21:42:35;;;;;;;;;;;;;;;;;;6309442;22;20312;-95
2023/09/27 21:45:01;;;;;;;;;;;;;;;;;;6309851;22;19907;-96
2023/09/27 21:47:27;;;;;;;;;;;;;;;;;;6311268;22;19937;-96